Weather Data

Pearl Creek Farm: 8878 N Farm Road 75, Walnut Grove MO 65770

<== Previous Day (Wednesday 16 Aug 2017) | Next Day (Friday 18 Aug 2017) ==>

Summary Precipitation Data For Thursday 17 August 2017

ElementValueUnits
Precipitation2.23"
NotesA little more than an inch fell during rain yesterday while I was at work. The remainder, more than an inch again, fell over night. It's still wet and cloudy now but not raining.
SourcePearl Creek Farm

Summary Temperature Data For Thursday 17 August 2017

ElementValueUnits
High Temperature83 oF
Low Temperature65 oF
Average Temperature73 oF
High Humidity100 %
Low Humidity59 %
Average Humidity83 %
SourceSpringfield-Branson National Airport (SGF)

Detail Temperature Data For Thursday 17 August 2017

Date / TimeTemp (F)RH (%)Dew Pt (F)Report Date / TimeSource
2017-08-17 01:52:00 67 100 67.0 2017-12-29 17:00:26.17417 Springfield-Branson National Airport (SGF)
2017-08-17 00:52:00 67 100 67.0 2017-12-29 17:00:26.17417 Springfield-Branson National Airport (SGF)
2017-08-17 02:52:00 67 100 67.0 2017-12-29 17:00:26.17417 Springfield-Branson National Airport (SGF)
2017-08-17 03:52:00 67 100 67.0 2017-12-29 17:00:26.17417 Springfield-Branson National Airport (SGF)
2017-08-17 04:52:00 67 100 67.0 2017-12-29 17:00:26.17417 Springfield-Branson National Airport (SGF)
2017-08-17 05:52:00 67 100 67.0 2017-12-29 17:00:26.17417 Springfield-Branson National Airport (SGF)
2017-08-17 06:52:00 69 96 68.0 2017-12-29 17:00:26.17417 Springfield-Branson National Airport (SGF)
2017-08-17 07:52:00 70 97 69.0 2017-12-29 17:00:26.17417 Springfield-Branson National Airport (SGF)
2017-08-17 08:52:00 72 94 70.0 2017-12-29 17:00:26.17417 Springfield-Branson National Airport (SGF)
2017-08-17 09:52:00 74 88 70.0 2017-12-29 17:00:26.17417 Springfield-Branson National Airport (SGF)
2017-08-17 10:52:00 77 79 70.0 2017-12-29 17:00:26.17417 Springfield-Branson National Airport (SGF)
2017-08-17 11:52:00 80 74 71.0 2017-12-29 17:00:26.17417 Springfield-Branson National Airport (SGF)
2017-08-17 12:52:00 81 69 70.0 2017-12-29 17:00:26.17417 Springfield-Branson National Airport (SGF)
2017-08-17 13:52:00 82 67 70.0 2017-12-29 17:00:26.17417 Springfield-Branson National Airport (SGF)
2017-08-17 14:52:00 82 63 68.0 2017-12-29 17:00:26.17417 Springfield-Branson National Airport (SGF)
2017-08-17 15:52:00 83 61 68.0 2017-12-29 17:00:26.17417 Springfield-Branson National Airport (SGF)
2017-08-17 16:52:00 83 59 67.0 2017-12-29 17:00:26.17417 Springfield-Branson National Airport (SGF)
2017-08-17 17:52:00 81 61 66.0 2017-12-29 17:00:26.17417 Springfield-Branson National Airport (SGF)
2017-08-17 18:52:00 76 67 64.0 2017-12-29 17:00:26.17417 Springfield-Branson National Airport (SGF)
2017-08-17 19:52:00 74 71 64.0 2017-12-29 17:00:26.17417 Springfield-Branson National Airport (SGF)
2017-08-17 20:52:00 69 81 63.0 2017-12-29 17:00:26.17417 Springfield-Branson National Airport (SGF)
2017-08-17 21:52:00 65 93 63.0 2017-12-29 17:00:26.17417 Springfield-Branson National Airport (SGF)
2017-08-17 22:52:00 66 90 63.0 2017-12-29 17:00:26.17417 Springfield-Branson National Airport (SGF)
2017-08-17 23:52:00 65 93 63.0 2017-12-29 17:00:26.17417 Springfield-Branson National Airport (SGF)

A total of 24 rows are displayed.